sensor_id;sensor_type;location;lat;lon;timestamp;temperature;humidity
20574;DHT22;10445;50.216;7.912;2023-08-06T14:40:15;13.40;99.90
20574;DHT22;10445;50.216;7.912;2023-08-06T14:42:48;13.40;99.90
20574;DHT22;10445;50.216;7.912;2023-08-06T14:45:30;13.30;99.90
20574;DHT22;10445;50.216;7.912;2023-08-06T14:47:59;13.30;99.90
20574;DHT22;10445;50.216;7.912;2023-08-06T14:50:32;13.20;99.90
20574;DHT22;10445;50.216;7.912;2023-08-06T14:53:03;13.10;99.90
20574;DHT22;10445;50.216;7.912;2023-08-06T14:55:34;13.10;99.90
20574;DHT22;10445;50.216;7.912;2023-08-06T14:58:04;13.10;99.90
20574;DHT22;10445;50.216;7.912;2023-08-06T15:00:33;13.10;99.90
20574;DHT22;10445;50.216;7.912;2023-08-06T15:03:02;13.10;99.90
20574;DHT22;10445;50.216;7.912;2023-08-06T15:05:33;13.20;99.90
20574;DHT22;10445;50.216;7.912;2023-08-06T15:08:21;13.10;99.90
20574;DHT22;10445;50.216;7.912;2023-08-06T15:10:55;13.20;99.90
20574;DHT22;10445;50.216;7.912;2023-08-06T15:14:09;13.20;99.90
20574;DHT22;10445;50.216;7.912;2023-08-06T15:16:40;13.20;99.90
20574;DHT22;10445;50.216;7.912;2023-08-06T15:19:09;13.20;99.90
20574;DHT22;10445;50.216;7.912;2023-08-06T15:21:38;13.20;99.90
20574;DHT22;10445;50.216;7.912;2023-08-06T15:24:07;13.20;99.90
20574;DHT22;10445;50.216;7.912;2023-08-06T15:26:38;13.20;99.90
20574;DHT22;10445;50.216;7.912;2023-08-06T15:29:10;13.30;99.90
20574;DHT22;10445;50.216;7.912;2023-08-06T15:31:43;13.30;99.90
20574;DHT22;10445;50.216;7.912;2023-08-06T15:34:13;13.30;99.90
20574;DHT22;10445;50.216;7.912;2023-08-06T15:36:54;13.30;99.90
20574;DHT22;10445;50.216;7.912;2023-08-06T15:57:06;13.10;99.90
20574;DHT22;10445;50.216;7.912;2023-08-06T15:59:36;13.10;99.90
20574;DHT22;10445;50.216;7.912;2023-08-06T16:02:07;13.10;99.90
20574;DHT22;10445;50.216;7.912;2023-08-06T16:04:53;13.10;99.90
20574;DHT22;10445;50.216;7.912;2023-08-06T16:07:22;13.00;99.90
20574;DHT22;10445;50.216;7.912;2023-08-06T16:10:00;13.00;99.90
20574;DHT22;10445;50.216;7.912;2023-08-06T16:12:34;13.00;99.90
20574;DHT22;10445;50.216;7.912;2023-08-06T16:15:03;13.00;99.90
20574;DHT22;10445;50.216;7.912;2023-08-06T16:17:32;13.00;99.90
20574;DHT22;10445;50.216;7.912;2023-08-06T16:20:09;13.00;99.90
20574;DHT22;10445;50.216;7.912;2023-08-06T16:22:38;12.90;99.90
20574;DHT22;10445;50.216;7.912;2023-08-06T16:25:07;12.90;99.90
20574;DHT22;10445;50.216;7.912;2023-08-06T16:27:40;12.90;99.90
20574;DHT22;10445;50.216;7.912;2023-08-06T16:30:09;12.90;99.90
20574;DHT22;10445;50.216;7.912;2023-08-06T16:32:38;12.90;99.90
20574;DHT22;10445;50.216;7.912;2023-08-06T16:35:08;12.80;99.90
20574;DHT22;10445;50.216;7.912;2023-08-06T16:37:37;12.80;99.90
20574;DHT22;10445;50.216;7.912;2023-08-06T16:40:07;12.80;99.90
20574;DHT22;10445;50.216;7.912;2023-08-06T16:42:37;12.70;99.90
20574;DHT22;10445;50.216;7.912;2023-08-06T16:45:08;12.70;99.90
20574;DHT22;10445;50.216;7.912;2023-08-06T16:47:37;12.70;99.90
20574;DHT22;10445;50.216;7.912;2023-08-06T16:50:06;12.60;99.90
20574;DHT22;10445;50.216;7.912;2023-08-06T16:52:37;12.60;99.90
20574;DHT22;10445;50.216;7.912;2023-08-06T16:55:07;12.70;99.90
20574;DHT22;10445;50.216;7.912;2023-08-06T16:57:35;12.60;99.90
20574;DHT22;10445;50.216;7.912;2023-08-06T17:00:07;12.60;99.90
20574;DHT22;10445;50.216;7.912;2023-08-06T17:02:35;12.60;99.90
20574;DHT22;10445;50.216;7.912;2023-08-06T17:05:04;12.60;99.90
20574;DHT22;10445;50.216;7.912;2023-08-06T17:07:33;12.60;99.90
20574;DHT22;10445;50.216;7.912;2023-08-06T17:10:02;12.60;99.90
20574;DHT22;10445;50.216;7.912;2023-08-06T17:12:31;12.60;99.90
20574;DHT22;10445;50.216;7.912;2023-08-06T17:14:59;12.60;99.90
20574;DHT22;10445;50.216;7.912;2023-08-06T17:17:29;12.60;99.90
20574;DHT22;10445;50.216;7.912;2023-08-06T17:19:57;12.60;99.90
20574;DHT22;10445;50.216;7.912;2023-08-06T17:22:26;12.60;99.90
20574;DHT22;10445;50.216;7.912;2023-08-06T17:24:54;12.50;99.90
20574;DHT22;10445;50.216;7.912;2023-08-06T17:27:23;12.40;99.90
20574;DHT22;10445;50.216;7.912;2023-08-06T17:29:51;12.40;99.90
20574;DHT22;10445;50.216;7.912;2023-08-06T17:32:20;12.40;99.90
20574;DHT22;10445;50.216;7.912;2023-08-06T17:34:50;12.30;99.90
20574;DHT22;10445;50.216;7.912;2023-08-06T17:37:18;12.30;99.90
20574;DHT22;10445;50.216;7.912;2023-08-06T17:39:47;12.30;99.90
20574;DHT22;10445;50.216;7.912;2023-08-06T17:42:15;12.40;99.90
20574;DHT22;10445;50.216;7.912;2023-08-06T17:44:44;12.40;99.90
20574;DHT22;10445;50.216;7.912;2023-08-06T17:47:14;12.30;99.90
20574;DHT22;10445;50.216;7.912;2023-08-06T17:50:03;12.40;99.90
20574;DHT22;10445;50.216;7.912;2023-08-06T17:52:32;12.30;99.90
20574;DHT22;10445;50.216;7.912;2023-08-06T17:55:01;12.30;99.90
20574;DHT22;10445;50.216;7.912;2023-08-06T17:57:30;12.30;99.90
20574;DHT22;10445;50.216;7.912;2023-08-06T17:59:59;12.30;99.90
20574;DHT22;10445;50.216;7.912;2023-08-06T18:02:27;12.30;99.90
20574;DHT22;10445;50.216;7.912;2023-08-06T18:04:56;12.20;99.90
20574;DHT22;10445;50.216;7.912;2023-08-06T18:07:26;12.20;99.90
20574;DHT22;10445;50.216;7.912;2023-08-06T18:09:55;12.20;99.90
20574;DHT22;10445;50.216;7.912;2023-08-06T18:12:24;12.20;99.90
20574;DHT22;10445;50.216;7.912;2023-08-06T18:14:52;12.20;99.90
20574;DHT22;10445;50.216;7.912;2023-08-06T18:17:21;12.20;99.90
20574;DHT22;10445;50.216;7.912;2023-08-06T18:19:50;12.20;99.90
20574;DHT22;10445;50.216;7.912;2023-08-06T18:22:18;12.20;99.90
20574;DHT22;10445;50.216;7.912;2023-08-06T18:24:48;12.20;99.90
20574;DHT22;10445;50.216;7.912;2023-08-06T18:27:16;12.20;99.90
20574;DHT22;10445;50.216;7.912;2023-08-06T18:29:45;12.20;99.90
20574;DHT22;10445;50.216;7.912;2023-08-06T18:32:13;12.20;99.90
20574;DHT22;10445;50.216;7.912;2023-08-06T18:34:42;12.10;99.90
20574;DHT22;10445;50.216;7.912;2023-08-06T18:37:10;12.20;99.90
20574;DHT22;10445;50.216;7.912;2023-08-06T18:39:39;12.10;99.90
20574;DHT22;10445;50.216;7.912;2023-08-06T18:42:10;12.10;99.90
20574;DHT22;10445;50.216;7.912;2023-08-06T18:44:38;12.10;99.90
20574;DHT22;10445;50.216;7.912;2023-08-06T18:47:07;12.10;99.90
20574;DHT22;10445;50.216;7.912;2023-08-06T18:49:35;12.10;99.90
20574;DHT22;10445;50.216;7.912;2023-08-06T18:52:05;12.00;99.90
20574;DHT22;10445;50.216;7.912;2023-08-06T18:54:34;12.00;99.90
20574;DHT22;10445;50.216;7.912;2023-08-06T18:57:03;12.00;99.90
20574;DHT22;10445;50.216;7.912;2023-08-06T18:59:33;12.00;99.90
20574;DHT22;10445;50.216;7.912;2023-08-06T19:02:02;11.90;99.90
20574;DHT22;10445;50.216;7.912;2023-08-06T19:04:30;11.90;99.90
20574;DHT22;10445;50.216;7.912;2023-08-06T19:06:59;11.90;99.90
20574;DHT22;10445;50.216;7.912;2023-08-06T19:09:27;11.90;99.90
20574;DHT22;10445;50.216;7.912;2023-08-06T19:11:56;11.90;99.90
20574;DHT22;10445;50.216;7.912;2023-08-06T19:14:25;11.90;99.90
20574;DHT22;10445;50.216;7.912;2023-08-06T19:16:55;11.90;99.90
20574;DHT22;10445;50.216;7.912;2023-08-06T19:19:25;11.90;99.90
20574;DHT22;10445;50.216;7.912;2023-08-06T19:21:54;11.90;99.90
20574;DHT22;10445;50.216;7.912;2023-08-06T19:24:23;11.90;99.90
20574;DHT22;10445;50.216;7.912;2023-08-06T19:26:51;11.90;99.90
20574;DHT22;10445;50.216;7.912;2023-08-06T19:29:20;11.90;99.90
20574;DHT22;10445;50.216;7.912;2023-08-06T19:31:49;11.90;99.90
20574;DHT22;10445;50.216;7.912;2023-08-06T19:34:33;11.90;99.90
20574;DHT22;10445;50.216;7.912;2023-08-06T19:37:02;11.80;99.90
20574;DHT22;10445;50.216;7.912;2023-08-06T19:39:31;11.80;99.90
20574;DHT22;10445;50.216;7.912;2023-08-06T19:41:59;11.80;99.90
20574;DHT22;10445;50.216;7.912;2023-08-06T19:44:27;11.80;99.90
20574;DHT22;10445;50.216;7.912;2023-08-06T19:46:56;11.80;99.90
20574;DHT22;10445;50.216;7.912;2023-08-06T19:49:24;11.70;99.90
20574;DHT22;10445;50.216;7.912;2023-08-06T19:51:54;11.80;99.90
20574;DHT22;10445;50.216;7.912;2023-08-06T19:54:23;11.80;99.90
20574;DHT22;10445;50.216;7.912;2023-08-06T19:56:52;11.80;99.90
20574;DHT22;10445;50.216;7.912;2023-08-06T19:59:20;11.80;99.90
20574;DHT22;10445;50.216;7.912;2023-08-06T20:01:49;11.80;99.90
20574;DHT22;10445;50.216;7.912;2023-08-06T20:04:20;11.80;99.90
20574;DHT22;10445;50.216;7.912;2023-08-06T20:06:48;11.70;99.90
20574;DHT22;10445;50.216;7.912;2023-08-06T20:09:19;11.70;99.90
20574;DHT22;10445;50.216;7.912;2023-08-06T20:11:48;11.70;99.90
20574;DHT22;10445;50.216;7.912;2023-08-06T20:14:16;11.80;99.90
20574;DHT22;10445;50.216;7.912;2023-08-06T20:16:44;11.70;99.90
20574;DHT22;10445;50.216;7.912;2023-08-06T20:19:13;11.70;99.90
20574;DHT22;10445;50.216;7.912;2023-08-06T20:21:41;11.70;99.90
20574;DHT22;10445;50.216;7.912;2023-08-06T20:24:11;11.70;99.90
20574;DHT22;10445;50.216;7.912;2023-08-06T20:26:40;11.70;99.90
20574;DHT22;10445;50.216;7.912;2023-08-06T20:29:09;11.60;99.90
20574;DHT22;10445;50.216;7.912;2023-08-06T20:31:38;11.50;99.90
20574;DHT22;10445;50.216;7.912;2023-08-06T20:34:06;11.50;99.90
20574;DHT22;10445;50.216;7.912;2023-08-06T20:36:35;11.40;99.90
20574;DHT22;10445;50.216;7.912;2023-08-06T20:39:03;11.40;99.90
20574;DHT22;10445;50.216;7.912;2023-08-06T20:41:31;11.40;99.90
20574;DHT22;10445;50.216;7.912;2023-08-06T20:44:01;11.40;99.90
20574;DHT22;10445;50.216;7.912;2023-08-06T20:46:30;11.30;99.90
20574;DHT22;10445;50.216;7.912;2023-08-06T20:48:58;11.30;99.90
20574;DHT22;10445;50.216;7.912;2023-08-06T20:51:27;11.30;99.90
20574;DHT22;10445;50.216;7.912;2023-08-06T20:53:55;11.30;99.90
20574;DHT22;10445;50.216;7.912;2023-08-06T20:56:23;11.30;99.90
20574;DHT22;10445;50.216;7.912;2023-08-06T20:58:52;11.30;99.90
20574;DHT22;10445;50.216;7.912;2023-08-06T21:01:21;11.20;99.90
20574;DHT22;10445;50.216;7.912;2023-08-06T21:03:50;11.20;99.90
20574;DHT22;10445;50.216;7.912;2023-08-06T21:06:18;11.20;99.90
20574;DHT22;10445;50.216;7.912;2023-08-06T21:08:47;11.10;99.90
20574;DHT22;10445;50.216;7.912;2023-08-06T21:11:15;11.10;99.90
20574;DHT22;10445;50.216;7.912;2023-08-06T21:13:44;11.20;99.90
20574;DHT22;10445;50.216;7.912;2023-08-06T21:16:12;11.10;99.90
20574;DHT22;10445;50.216;7.912;2023-08-06T21:18:42;11.10;99.90
20574;DHT22;10445;50.216;7.912;2023-08-06T21:21:10;11.10;99.90
20574;DHT22;10445;50.216;7.912;2023-08-06T21:23:39;11.20;99.90
20574;DHT22;10445;50.216;7.912;2023-08-06T21:26:08;11.10;99.90
20574;DHT22;10445;50.216;7.912;2023-08-06T21:28:37;11.10;99.90
20574;DHT22;10445;50.216;7.912;2023-08-06T21:31:09;11.10;99.90
20574;DHT22;10445;50.216;7.912;2023-08-06T21:33:39;11.10;99.90
20574;DHT22;10445;50.216;7.912;2023-08-06T21:36:09;11.10;99.90
20574;DHT22;10445;50.216;7.912;2023-08-06T21:38:39;11.10;99.90
20574;DHT22;10445;50.216;7.912;2023-08-06T21:41:09;11.10;99.90
20574;DHT22;10445;50.216;7.912;2023-08-06T21:43:39;11.00;99.90
20574;DHT22;10445;50.216;7.912;2023-08-06T21:46:09;11.00;99.90
20574;DHT22;10445;50.216;7.912;2023-08-06T21:48:38;11.00;99.90
20574;DHT22;10445;50.216;7.912;2023-08-06T21:51:10;11.00;99.90
20574;DHT22;10445;50.216;7.912;2023-08-06T21:53:38;11.00;99.90
20574;DHT22;10445;50.216;7.912;2023-08-06T21:56:08;11.00;99.90
20574;DHT22;10445;50.216;7.912;2023-08-06T21:58:38;11.00;99.90
20574;DHT22;10445;50.216;7.912;2023-08-06T22:01:07;10.90;99.90
20574;DHT22;10445;50.216;7.912;2023-08-06T22:03:37;11.00;99.90
20574;DHT22;10445;50.216;7.912;2023-08-06T22:06:07;11.00;99.90
20574;DHT22;10445;50.216;7.912;2023-08-06T22:08:40;11.00;99.90
20574;DHT22;10445;50.216;7.912;2023-08-06T22:11:08;11.00;99.90
20574;DHT22;10445;50.216;7.912;2023-08-06T22:13:37;11.00;99.90
20574;DHT22;10445;50.216;7.912;2023-08-06T22:16:06;11.00;99.90
20574;DHT22;10445;50.216;7.912;2023-08-06T22:18:35;11.10;99.90
20574;DHT22;10445;50.216;7.912;2023-08-06T22:21:03;11.00;99.90
20574;DHT22;10445;50.216;7.912;2023-08-06T22:23:32;11.10;99.90
20574;DHT22;10445;50.216;7.912;2023-08-06T22:26:02;11.00;99.90
20574;DHT22;10445;50.216;7.912;2023-08-06T22:28:30;11.10;99.90
20574;DHT22;10445;50.216;7.912;2023-08-06T22:30:59;11.10;99.90
20574;DHT22;10445;50.216;7.912;2023-08-06T22:33:27;11.10;99.90
20574;DHT22;10445;50.216;7.912;2023-08-06T22:35:57;11.10;99.90
20574;DHT22;10445;50.216;7.912;2023-08-06T22:38:26;11.10;99.90
20574;DHT22;10445;50.216;7.912;2023-08-06T22:40:54;11.10;99.90
20574;DHT22;10445;50.216;7.912;2023-08-06T22:51:54;11.10;99.90
20574;DHT22;10445;50.216;7.912;2023-08-06T22:54:23;11.10;99.90
20574;DHT22;10445;50.216;7.912;2023-08-06T22:56:51;11.10;99.90
20574;DHT22;10445;50.216;7.912;2023-08-06T22:59:20;11.10;99.90
20574;DHT22;10445;50.216;7.912;2023-08-06T23:01:48;11.10;99.90
20574;DHT22;10445;50.216;7.912;2023-08-06T23:04:17;11.10;99.90
20574;DHT22;10445;50.216;7.912;2023-08-06T23:06:45;11.10;99.90
20574;DHT22;10445;50.216;7.912;2023-08-06T23:09:15;11.00;99.90
20574;DHT22;10445;50.216;7.912;2023-08-06T23:11:44;11.00;99.90
20574;DHT22;10445;50.216;7.912;2023-08-06T23:14:12;11.00;99.90
20574;DHT22;10445;50.216;7.912;2023-08-06T23:16:41;11.00;99.90
20574;DHT22;10445;50.216;7.912;2023-08-06T23:19:09;11.00;99.90
20574;DHT22;10445;50.216;7.912;2023-08-06T23:21:38;10.90;99.90
20574;DHT22;10445;50.216;7.912;2023-08-06T23:24:07;10.90;99.90
20574;DHT22;10445;50.216;7.912;2023-08-06T23:26:37;10.90;99.90
20574;DHT22;10445;50.216;7.912;2023-08-06T23:29:05;10.90;99.90
20574;DHT22;10445;50.216;7.912;2023-08-06T23:31:33;10.90;99.90
20574;DHT22;10445;50.216;7.912;2023-08-06T23:34:02;10.90;99.90
20574;DHT22;10445;50.216;7.912;2023-08-06T23:36:33;10.90;99.90
20574;DHT22;10445;50.216;7.912;2023-08-06T23:39:01;10.90;99.90
20574;DHT22;10445;50.216;7.912;2023-08-06T23:41:30;10.90;99.90
20574;DHT22;10445;50.216;7.912;2023-08-06T23:43:59;10.90;99.90
20574;DHT22;10445;50.216;7.912;2023-08-06T23:46:28;10.90;99.90
20574;DHT22;10445;50.216;7.912;2023-08-06T23:48:56;10.90;99.90
20574;DHT22;10445;50.216;7.912;2023-08-06T23:51:25;10.80;99.90
20574;DHT22;10445;50.216;7.912;2023-08-06T23:53:53;10.80;99.90
20574;DHT22;10445;50.216;7.912;2023-08-06T23:56:21;10.80;99.90
20574;DHT22;10445;50.216;7.912;2023-08-06T23:58:50;10.80;99.90
